createdAt,value
2023-03-16T00:00:17.610Z,101386.44
2023-03-16T00:00:39.731Z,101391.69
2023-03-16T00:01:05.882Z,101393.47
2023-03-16T00:01:27.901Z,101385.59
2023-03-16T00:01:49.909Z,101373.34
2023-03-16T00:02:12.890Z,101372.50
2023-03-16T00:02:34.501Z,101389.97
2023-03-16T00:02:58.522Z,101389.06
2023-03-16T00:03:20.644Z,101386.44
2023-03-16T00:03:42.845Z,101386.41
2023-03-16T00:04:05.029Z,101388.16
2023-03-16T00:04:26.844Z,101383.78
2023-03-16T00:04:50.004Z,101388.19
2023-03-16T00:05:14.064Z,101384.69
2023-03-16T00:05:35.740Z,101380.25
2023-03-16T00:05:58.366Z,101356.56
2023-03-16T00:06:20.764Z,101387.28
2023-03-16T00:06:42.634Z,101386.38
2023-03-16T00:07:06.419Z,101383.78
2023-03-16T00:07:28.256Z,101387.28
2023-03-16T00:07:50.903Z,101384.69
2023-03-16T00:08:13.093Z,101382.91
2023-03-16T00:08:35.522Z,101382.03
2023-03-16T00:08:59.099Z,101381.19
2023-03-16T00:09:21.738Z,101382.06
2023-03-16T00:09:43.601Z,101378.56
2023-03-16T00:10:07.144Z,101384.75
2023-03-16T00:10:29.249Z,101375.09
2023-03-16T00:10:54.339Z,101380.38
2023-03-16T00:11:16.450Z,101383.91
2023-03-16T00:11:38.437Z,101375.09
2023-03-16T00:12:03.120Z,101361.13
2023-03-16T00:12:26.236Z,101381.28
2023-03-16T00:12:47.776Z,101384.78
2023-03-16T00:13:09.892Z,101365.56
2023-03-16T00:13:32.525Z,101379.53
2023-03-16T00:13:55.623Z,101385.69
2023-03-16T00:14:17.241Z,101377.78
2023-03-16T00:14:38.814Z,101380.41
2023-03-16T00:15:01.924Z,101376.88
2023-03-16T00:15:23.586Z,101387.41
2023-03-16T00:15:51.403Z,101360.25
2023-03-16T00:16:16.841Z,101387.47
2023-03-16T00:16:39.258Z,101386.59
2023-03-16T00:17:02.014Z,101391.00
2023-03-16T00:17:26.576Z,101383.13
2023-03-16T00:17:48.719Z,101378.72
2023-03-16T00:18:11.728Z,101385.72
2023-03-16T00:18:38.820Z,101386.63
2023-03-16T00:19:03.648Z,101384.91
2023-03-16T00:19:25.260Z,101385.78
2023-03-16T00:19:47.732Z,101386.66
2023-03-16T00:20:11.799Z,101383.13
2023-03-16T00:20:34.450Z,101367.31
2023-03-16T00:20:58.228Z,101381.38
2023-03-16T00:21:20.129Z,101379.59
2023-03-16T00:21:41.777Z,101375.19
2023-03-16T00:22:03.419Z,101379.59
2023-03-16T00:22:28.024Z,101377.00
2023-03-16T00:22:49.787Z,101373.44
2023-03-16T00:23:11.913Z,101378.72
2023-03-16T00:23:35.936Z,101379.59
2023-03-16T00:23:59.177Z,101375.19
2023-03-16T00:24:21.056Z,101358.56
2023-03-16T00:24:43.881Z,101380.53
2023-03-16T00:25:07.002Z,101352.44
2023-03-16T00:25:28.627Z,101370.00
2023-03-16T00:25:53.713Z,101369.97
2023-03-16T00:26:15.358Z,101375.22
2023-03-16T00:26:36.992Z,101370.84
2023-03-16T00:26:58.587Z,101384.00
2023-03-16T00:27:22.644Z,101373.44
2023-03-16T00:27:45.533Z,101375.19
2023-03-16T00:28:07.234Z,101369.91
2023-03-16T00:28:34.623Z,101372.56
2023-03-16T00:28:57.831Z,101363.78
2023-03-16T00:29:19.512Z,101369.91
2023-03-16T00:29:47.424Z,101355.00
2023-03-16T00:30:10.312Z,101353.25
2023-03-16T00:30:32.930Z,101367.31
2023-03-16T00:30:58.931Z,101363.88
2023-03-16T00:31:20.766Z,101355.06
2023-03-16T00:31:44.077Z,101356.84
2023-03-16T00:32:07.521Z,101360.31
2023-03-16T00:32:33.484Z,101357.69
2023-03-16T00:32:55.245Z,101355.09
2023-03-16T00:33:19.713Z,101356.00
2023-03-16T00:33:44.822Z,101357.75
2023-03-16T00:34:06.434Z,101355.13
2023-03-16T00:34:38.749Z,101348.13
2023-03-16T00:35:01.960Z,101351.66
2023-03-16T00:35:26.392Z,101337.56
2023-03-16T00:35:50.226Z,101349.00
2023-03-16T00:36:12.671Z,101350.78
2023-03-16T00:36:38.127Z,101355.16
2023-03-16T00:37:00.749Z,101345.47
2023-03-16T00:37:25.013Z,101352.53
2023-03-16T00:37:46.868Z,101334.94
2023-03-16T00:38:09.587Z,101349.00
2023-03-16T00:38:35.305Z,101354.28
2023-03-16T00:38:56.867Z,101346.34
2023-03-16T00:39:20.497Z,101348.13
2023-03-16T00:39:42.274Z,101349.00
2023-03-16T00:40:11.416Z,101341.09
2023-03-16T00:40:33.838Z,101335.81
2023-03-16T00:40:56.130Z,101350.72
2023-03-16T00:41:19.098Z,101351.59
2023-03-16T00:41:42.903Z,101343.75
2023-03-16T00:42:04.597Z,101352.50
2023-03-16T00:42:29.353Z,101348.16
2023-03-16T00:42:50.976Z,101347.25
2023-03-16T00:43:18.509Z,101356.91
2023-03-16T00:43:41.312Z,101343.72
2023-03-16T00:44:03.726Z,101342.84
2023-03-16T00:44:25.315Z,101352.50
2023-03-16T00:44:47.599Z,101344.59
2023-03-16T00:45:11.758Z,101356.91
2023-03-16T00:45:33.411Z,101356.03
2023-03-16T00:45:58.805Z,101346.38
2023-03-16T00:46:26.382Z,101341.97
2023-03-16T00:46:48.035Z,101352.50
2023-03-16T00:47:14.299Z,101350.75
2023-03-16T00:47:36.262Z,101356.88
2023-03-16T00:47:58.890Z,101360.38
2023-03-16T00:48:24.423Z,101347.22
2023-03-16T00:48:47.239Z,101354.22
2023-03-16T00:49:09.376Z,101348.97
2023-03-16T00:49:34.824Z,101361.25
2023-03-16T00:49:58.108Z,101360.41
2023-03-16T00:50:23.296Z,101361.28
2023-03-16T00:50:45.108Z,101363.91
2023-03-16T00:51:09.100Z,101354.25
2023-03-16T00:51:33.854Z,101366.56
2023-03-16T00:51:55.461Z,101353.38
2023-03-16T00:52:17.293Z,101366.56
2023-03-16T00:52:38.903Z,101361.28
2023-03-16T00:53:03.490Z,101363.00
2023-03-16T00:53:25.162Z,101364.75
2023-03-16T00:53:47.403Z,101352.44
2023-03-16T00:54:09.073Z,101366.50
2023-03-16T00:54:32.780Z,101363.84
2023-03-16T00:54:57.491Z,101362.06
2023-03-16T00:55:19.312Z,101363.81
2023-03-16T00:55:41.532Z,101361.16
2023-03-16T00:56:04.427Z,101356.81
2023-03-16T00:56:27.423Z,101357.66
2023-03-16T00:56:49.112Z,101341.88
2023-03-16T00:57:12.306Z,101352.41
2023-03-16T00:57:35.502Z,101353.22
2023-03-16T00:57:57.212Z,101348.81
2023-03-16T00:58:20.068Z,101354.94
2023-03-16T00:58:43.283Z,101354.06
2023-03-16T00:59:08.784Z,101357.56
2023-03-16T00:59:31.221Z,101349.63
2023-03-16T00:59:52.978Z,101361.06
2023-03-16T01:00:17.071Z,101357.53
2023-03-16T01:00:40.382Z,101354.91
2023-03-16T01:01:04.782Z,101354.91
2023-03-16T01:01:27.361Z,101361.06
2023-03-16T01:01:49.431Z,101356.63
2023-03-16T01:02:12.400Z,101364.56
2023-03-16T01:02:37.205Z,101361.03
2023-03-16T01:02:58.859Z,101360.16
2023-03-16T01:03:20.755Z,101360.16
2023-03-16T01:03:44.841Z,101357.47
2023-03-16T01:04:09.358Z,101357.50
2023-03-16T01:04:32.471Z,101360.13
2023-03-16T01:04:54.898Z,101359.25
2023-03-16T01:05:16.728Z,101360.16
2023-03-16T01:05:41.825Z,101355.75
2023-03-16T01:06:04.529Z,101361.03
2023-03-16T01:06:26.352Z,101359.28
2023-03-16T01:06:48.985Z,101361.03
2023-03-16T01:07:14.627Z,101353.19
2023-03-16T01:07:36.320Z,101356.69
2023-03-16T01:07:57.936Z,101356.72
2023-03-16T01:08:19.620Z,101358.47
2023-03-16T01:08:42.831Z,101359.34
2023-03-16T01:09:05.589Z,101364.66
2023-03-16T01:09:27.367Z,101361.16
2023-03-16T01:09:50.362Z,101359.41
2023-03-16T01:10:14.011Z,101359.41
2023-03-16T01:10:36.623Z,101361.19
2023-03-16T01:11:03.535Z,101355.03
2023-03-16T01:11:25.165Z,101361.16
2023-03-16T01:11:50.765Z,101366.47
2023-03-16T01:12:14.698Z,101363.91
2023-03-16T01:12:36.505Z,101358.66
2023-03-16T01:12:58.351Z,101354.22
2023-03-16T01:13:23.491Z,101370.03
2023-03-16T01:13:46.889Z,101356.84
2023-03-16T01:14:08.747Z,101347.22
2023-03-16T01:14:30.626Z,101369.16
2023-03-16T01:14:53.659Z,101369.13
2023-03-16T01:15:15.376Z,101370.00
2023-03-16T01:16:34.366Z,101358.63
2023-03-16T01:16:57.183Z,101363.88
2023-03-16T01:17:18.872Z,101355.09
2023-03-16T01:17:41.381Z,101360.34
2023-03-16T01:18:04.875Z,101362.06
2023-03-16T01:18:28.563Z,101359.44
2023-03-16T01:18:52.565Z,101352.38
2023-03-16T01:19:14.320Z,101357.63
2023-03-16T01:19:37.444Z,101345.34
2023-03-16T01:20:00.705Z,101345.34
2023-03-16T01:20:22.882Z,101348.84
2023-03-16T01:20:50.567Z,101346.19
2023-03-16T01:21:13.884Z,101340.91
2023-03-16T01:21:38.180Z,101354.94
2023-03-16T01:21:59.921Z,101349.69
2023-03-16T01:22:21.596Z,101346.16
2023-03-16T01:22:43.273Z,101349.69
2023-03-16T01:23:05.464Z,101344.41
2023-03-16T01:23:30.111Z,101333.91
2023-03-16T01:23:53.683Z,101346.16
2023-03-16T01:24:16.705Z,101344.41
2023-03-16T01:24:39.964Z,101348.78
2023-03-16T01:25:02.570Z,101336.47
2023-03-16T01:25:24.271Z,101340.81
2023-03-16T01:25:52.733Z,101348.78
2023-03-16T01:26:16.343Z,101341.75
2023-03-16T01:26:38.997Z,101338.22
2023-03-16T01:27:01.396Z,101336.47
2023-03-16T01:27:26.238Z,101338.25
2023-03-16T01:27:48.170Z,101340.00
2023-03-16T01:28:11.210Z,101340.88
2023-03-16T01:28:34.188Z,101331.25
2023-03-16T01:28:55.857Z,101336.50
2023-03-16T01:29:18.086Z,101333.03
2023-03-16T01:29:40.376Z,101329.50
2023-03-16T01:30:03.164Z,101336.50
2023-03-16T01:30:25.404Z,101325.97
2023-03-16T01:30:47.857Z,101320.69
2023-03-16T01:31:11.673Z,101324.25
2023-03-16T01:31:33.418Z,101318.97
2023-03-16T01:31:56.381Z,101317.22
2023-03-16T01:32:19.317Z,101319.00
2023-03-16T01:32:41.744Z,101296.22
2023-03-16T01:33:03.860Z,101321.72
2023-03-16T01:33:27.345Z,101327.84
2023-03-16T01:33:52.736Z,101326.06
2023-03-16T01:34:18.789Z,101320.81
2023-03-16T01:34:40.576Z,101316.41
2023-03-16T01:35:02.859Z,101319.91
2023-03-16T01:35:25.505Z,101318.13
2023-03-16T01:35:52.417Z,101325.16
2023-03-16T01:36:17.228Z,101324.25
2023-03-16T01:36:48.879Z,101310.22
2023-03-16T01:37:19.011Z,101305.84
2023-03-16T01:37:53.778Z,101318.09
2023-03-16T01:38:19.566Z,101318.94
2023-03-16T01:38:41.763Z,101324.22
2023-03-16T01:39:05.041Z,101318.09
2023-03-16T01:39:30.946Z,101319.03
2023-03-16T01:39:52.694Z,101322.53
2023-03-16T01:40:14.554Z,101322.50
2023-03-16T01:40:38.182Z,101316.34
2023-03-16T01:41:01.042Z,101319.03
2023-03-16T01:41:22.902Z,101319.88
2023-03-16T01:41:45.801Z,101311.13
2023-03-16T01:42:08.459Z,101313.81
2023-03-16T01:42:30.065Z,101306.75
2023-03-16T01:43:01.262Z,101312.00
2023-03-16T01:43:26.759Z,101310.25
2023-03-16T01:43:51.842Z,101319.00
2023-03-16T01:44:14.700Z,101316.34
2023-03-16T01:44:56.039Z,101311.91
2023-03-16T01:46:09.998Z,101315.41
2023-03-16T01:46:35.335Z,101314.53
2023-03-16T01:46:57.426Z,101316.34
2023-03-16T01:47:20.078Z,101311.09
2023-03-16T01:47:42.547Z,101299.66
2023-03-16T01:48:08.353Z,101290.88
2023-03-16T01:48:37.159Z,101308.41
2023-03-16T01:49:09.053Z,101308.44
2023-03-16T01:49:34.255Z,101300.53
2023-03-16T01:49:57.570Z,101299.66
2023-03-16T01:50:22.661Z,101304.06
2023-03-16T01:50:45.697Z,101311.97
2023-03-16T01:51:10.476Z,101309.34
2023-03-16T01:51:36.614Z,101306.69
2023-03-16T01:52:03.504Z,101301.44
2023-03-16T01:52:33.283Z,101300.50
2023-03-16T01:52:55.115Z,101307.56
2023-03-16T01:53:18.291Z,101299.69
2023-03-16T01:53:44.540Z,101288.28
2023-03-16T01:54:11.145Z,101305.88
2023-03-16T01:54:36.329Z,101303.28
2023-03-16T01:55:03.953Z,101290.94
2023-03-16T01:55:27.477Z,101299.75
2023-03-16T01:55:51.152Z,101277.00
2023-03-16T01:56:19.711Z,101298.97
2023-03-16T01:56:45.722Z,101284.91
2023-03-16T01:57:11.698Z,101294.53
2023-03-16T01:57:39.152Z,101290.13
2023-03-16T01:58:01.916Z,101292.78
2023-03-16T01:58:25.362Z,101283.97
2023-03-16T01:58:47.420Z,101291.03
2023-03-16T01:59:15.049Z,101282.19
2023-03-16T01:59:41.395Z,101290.97
2023-03-16T02:00:09.913Z,101283.91
2023-03-16T02:00:41.860Z,101286.53
2023-03-16T02:01:13.907Z,101283.91
2023-03-16T02:01:36.413Z,101290.06
2023-03-16T02:02:00.411Z,101282.13
2023-03-16T02:02:28.376Z,101285.63
2023-03-16T02:02:57.916Z,101277.75
2023-03-16T02:03:30.025Z,101283.91
2023-03-16T02:04:08.024Z,101279.47
2023-03-16T02:04:44.443Z,101279.47
2023-03-16T02:05:13.304Z,101285.63
2023-03-16T02:05:42.326Z,101276.84
2023-03-16T02:06:09.337Z,101282.13
2023-03-16T02:06:32.858Z,101277.78
2023-03-16T02:06:56.546Z,101267.25
2023-03-16T02:07:20.944Z,101271.63
2023-03-16T02:07:47.878Z,101282.16
2023-03-16T02:08:12.456Z,101276.88
2023-03-16T02:08:37.464Z,101279.47
2023-03-16T02:09:00.453Z,101280.41
2023-03-16T02:09:23.739Z,101275.13
2023-03-16T02:09:49.357Z,101276.00
2023-03-16T02:10:14.284Z,101276.88
2023-03-16T02:10:38.048Z,101270.72
2023-03-16T02:11:00.771Z,101274.25
2023-03-16T02:11:36.469Z,101268.94
2023-03-16T02:12:08.171Z,101277.69
2023-03-16T02:12:36.231Z,101266.28
2023-03-16T02:12:58.709Z,101273.31
2023-03-16T02:13:21.680Z,101276.81
2023-03-16T02:13:43.946Z,101273.31
2023-03-16T02:14:09.561Z,101270.66
2023-03-16T02:14:32.254Z,101265.44
2023-03-16T02:14:53.964Z,101277.69
2023-03-16T02:15:15.908Z,101275.97
2023-03-16T02:15:38.156Z,101270.66
2023-03-16T02:16:00.056Z,101268.88
2023-03-16T02:16:22.897Z,101271.56
2023-03-16T02:16:45.357Z,101270.69
2023-03-16T02:17:07.680Z,101275.06
2023-03-16T02:17:32.994Z,101271.56
2023-03-16T02:18:00.626Z,101268.97
2023-03-16T02:18:23.016Z,101266.41
2023-03-16T02:18:46.060Z,101269.00
2023-03-16T02:19:16.915Z,101264.63
2023-03-16T02:19:47.533Z,101262.88
2023-03-16T02:20:23.125Z,101262.88
2023-03-16T02:20:51.557Z,101265.53
2023-03-16T02:21:19.341Z,101266.38
2023-03-16T02:21:50.014Z,101261.13
2023-03-16T02:22:13.917Z,101264.63
2023-03-16T02:22:37.784Z,101266.44
2023-03-16T02:23:00.203Z,101264.66
2023-03-16T02:23:24.022Z,101270.78
2023-03-16T02:23:50.699Z,101275.19
2023-03-16T02:24:12.509Z,101271.66
2023-03-16T02:24:35.466Z,101270.75
2023-03-16T02:24:57.230Z,101270.78
2023-03-16T02:25:20.235Z,101267.25
2023-03-16T02:25:51.678Z,101268.97
2023-03-16T02:26:22.896Z,101272.47
2023-03-16T02:26:48.519Z,101270.72
2023-03-16T02:27:30.019Z,101275.97
2023-03-16T02:28:03.197Z,101268.06
2023-03-16T02:28:34.153Z,101268.91
2023-03-16T02:29:11.529Z,101268.88
2023-03-16T02:29:56.746Z,101273.28
2023-03-16T02:30:22.965Z,101270.66
2023-03-16T02:30:52.733Z,101259.22
2023-03-16T02:31:15.594Z,101267.97
2023-03-16T02:31:37.583Z,101254.81
2023-03-16T02:32:02.846Z,101260.94
2023-03-16T02:32:29.081Z,101259.22
2023-03-16T02:32:53.269Z,101258.34
2023-03-16T02:33:18.759Z,101258.31
2023-03-16T02:33:42.558Z,101262.69
2023-03-16T02:34:04.784Z,101245.16
2023-03-16T02:34:27.245Z,101257.41
2023-03-16T02:34:49.228Z,101255.66
2023-03-16T02:35:12.851Z,101252.13
2023-03-16T02:35:35.712Z,101259.19
2023-03-16T02:35:58.325Z,101252.19
2023-03-16T02:36:20.882Z,101251.31
2023-03-16T02:36:47.975Z,101242.56
2023-03-16T02:37:12.958Z,101240.75
2023-03-16T02:37:35.729Z,101246.03
2023-03-16T02:37:57.871Z,101237.28
2023-03-16T02:38:24.561Z,101240.84
2023-03-16T02:38:48.280Z,101243.47
2023-03-16T02:39:12.363Z,101242.56
2023-03-16T02:39:44.015Z,101236.41
2023-03-16T02:40:22.502Z,101236.34
2023-03-16T02:40:55.682Z,101242.50
2023-03-16T02:41:19.818Z,101230.25
2023-03-16T02:41:48.757Z,101240.84
2023-03-16T02:42:15.350Z,101249.63
2023-03-16T02:42:37.058Z,101245.22
2023-03-16T02:43:02.991Z,101240.81
2023-03-16T02:43:30.178Z,101241.69
2023-03-16T02:44:04.638Z,101251.34
2023-03-16T02:44:33.948Z,101238.16
2023-03-16T02:45:01.340Z,101248.69
2023-03-16T02:45:33.480Z,101258.38
2023-03-16T02:45:58.569Z,101238.19
2023-03-16T02:46:27.856Z,101249.69
2023-03-16T02:46:52.193Z,101252.28
2023-03-16T02:47:22.036Z,101245.22
2023-03-16T02:47:45.208Z,101226.78
2023-03-16T02:48:14.565Z,101250.44
2023-03-16T02:48:44.139Z,101244.31
2023-03-16T02:49:11.736Z,101226.72
2023-03-16T02:49:38.488Z,101245.13
2023-03-16T02:50:00.615Z,101246.88
2023-03-16T02:50:22.212Z,101243.34
2023-03-16T02:50:47.119Z,101236.31
2023-03-16T02:51:10.261Z,101229.38
2023-03-16T02:51:33.191Z,101214.47
2023-03-16T02:51:54.935Z,101233.69
2023-03-16T02:52:17.279Z,101226.75
2023-03-16T02:52:39.346Z,101231.09
2023-03-16T02:53:01.951Z,101231.06
2023-03-16T02:53:24.232Z,101232.84
2023-03-16T02:53:45.888Z,101230.19
2023-03-16T02:54:08.066Z,101239.84
2023-03-16T02:54:31.046Z,101231.97
2023-03-16T02:54:53.081Z,101230.25
2023-03-16T02:55:15.320Z,101232.88
2023-03-16T02:55:36.985Z,101231.13
2023-03-16T02:55:58.974Z,101234.63
2023-03-16T02:56:23.364Z,101240.78
2023-03-16T02:56:45.703Z,101239.91
2023-03-16T02:57:07.627Z,101228.47
2023-03-16T02:57:30.037Z,101228.50
2023-03-16T02:57:56.764Z,101232.88
2023-03-16T02:58:19.252Z,101232.88
2023-03-16T02:58:41.810Z,101229.38
2023-03-16T02:59:08.855Z,101229.38
2023-03-16T02:59:32.151Z,101229.34
2023-03-16T02:59:53.890Z,101235.50
2023-03-16T03:00:19.080Z,101235.47
2023-03-16T03:00:45.532Z,101231.06
2023-03-16T03:01:12.047Z,101225.78
2023-03-16T03:01:34.952Z,101224.03
2023-03-16T03:01:57.535Z,101224.91
2023-03-16T03:02:19.510Z,101217.84
2023-03-16T03:02:42.130Z,101222.22
2023-03-16T03:03:05.606Z,101210.88
2023-03-16T03:03:28.283Z,101200.31
2023-03-16T03:03:50.549Z,101216.91
2023-03-16T03:04:13.788Z,101227.44
2023-03-16T03:04:36.763Z,101216.94
2023-03-16T03:05:02.029Z,101225.78
2023-03-16T03:05:24.297Z,101232.81
2023-03-16T03:05:46.043Z,101228.41
2023-03-16T03:06:08.793Z,101214.41
2023-03-16T03:06:32.436Z,101223.22
2023-03-16T03:06:55.763Z,101229.38
2023-03-16T03:07:18.009Z,101217.13
2023-03-16T03:07:53.216Z,101220.66
2023-03-16T03:08:15.621Z,101204.88
2023-03-16T03:08:38.523Z,101217.13
2023-03-16T03:09:00.546Z,101196.13
2023-03-16T03:09:22.211Z,101228.63
2023-03-16T03:09:48.628Z,101226.88
2023-03-16T03:10:11.584Z,101224.28
2023-03-16T03:10:33.473Z,101216.38
2023-03-16T03:10:55.227Z,101218.09
2023-03-16T03:11:18.535Z,101226.00
2023-03-16T03:11:42.330Z,101227.75
2023-03-16T03:12:06.421Z,101225.13
2023-03-16T03:12:29.295Z,101226.88
2023-03-16T03:12:52.056Z,101222.47
2023-03-16T03:13:13.747Z,101233.91
2023-03-16T03:13:38.161Z,101215.44
2023-03-16T03:14:05.261Z,101224.28
2023-03-16T03:14:28.456Z,101226.06
2023-03-16T03:14:50.092Z,101228.69
2023-03-16T03:15:16.258Z,101221.69
2023-03-16T03:15:52.773Z,101232.25
2023-03-16T03:16:17.431Z,101222.56
2023-03-16T03:16:40.469Z,101226.03
2023-03-16T03:17:03.217Z,101219.00
2023-03-16T03:17:30.389Z,101226.91
2023-03-16T03:17:52.707Z,101232.13
2023-03-16T03:18:15.701Z,101225.97
2023-03-16T03:18:37.336Z,101223.34
2023-03-16T03:18:59.454Z,101222.50
2023-03-16T03:19:25.412Z,101226.00
2023-03-16T03:19:48.029Z,101227.75
2023-03-16T03:20:17.299Z,101215.47
2023-03-16T03:20:39.059Z,101224.25
2023-03-16T03:21:01.546Z,101222.47
2023-03-16T03:21:24.884Z,101218.97
2023-03-16T03:21:46.572Z,101221.59
2023-03-16T03:22:09.461Z,101225.13
2023-03-16T03:22:33.694Z,101204.06
2023-03-16T03:22:55.280Z,101229.53
2023-03-16T03:23:19.550Z,101224.25
2023-03-16T03:23:42.008Z,101223.34
2023-03-16T03:24:03.881Z,101216.31
2023-03-16T03:24:27.956Z,101223.34
2023-03-16T03:24:51.545Z,101227.75
2023-03-16T03:25:14.958Z,101212.84
2023-03-16T03:25:37.841Z,101225.13
2023-03-16T03:26:01.072Z,101206.66
2023-03-16T03:26:24.593Z,101217.19
2023-03-16T03:26:46.895Z,101207.53
2023-03-16T03:27:14.769Z,101217.22
2023-03-16T03:27:38.286Z,101190.00
2023-03-16T03:28:05.907Z,101214.56
2023-03-16T03:28:27.724Z,101211.06
2023-03-16T03:28:49.692Z,101213.69
2023-03-16T03:29:11.624Z,101203.16
2023-03-16T03:29:35.341Z,101211.06
2023-03-16T03:29:58.236Z,101206.69
2023-03-16T03:30:25.964Z,101197.94
2023-03-16T03:30:47.822Z,101208.50
2023-03-16T03:31:25.650Z,101207.56
2023-03-16T03:31:47.558Z,101210.25
2023-03-16T03:32:09.523Z,101208.50
2023-03-16T03:32:31.253Z,101216.34
2023-03-16T03:32:53.473Z,101200.56
2023-03-16T03:33:17.168Z,101214.59
2023-03-16T03:33:39.109Z,101206.69
2023-03-16T03:34:06.385Z,101209.38
2023-03-16T03:34:30.408Z,101210.22
2023-03-16T03:34:54.033Z,101189.19
2023-03-16T03:35:16.502Z,101197.09
2023-03-16T03:35:38.279Z,101211.13
2023-03-16T03:36:02.050Z,101197.19
2023-03-16T03:36:29.774Z,101206.81
2023-03-16T03:36:53.580Z,101212.06
2023-03-16T03:37:15.175Z,101212.06
2023-03-16T03:37:37.480Z,101205.03
2023-03-16T03:38:00.410Z,101210.25
2023-03-16T03:38:24.743Z,101210.25
2023-03-16T03:38:46.372Z,101204.94
2023-03-16T03:39:08.248Z,101208.47
2023-03-16T03:39:31.846Z,101213.72
2023-03-16T03:39:53.662Z,101206.72
2023-03-16T03:40:17.322Z,101211.97
2023-03-16T03:40:41.938Z,101207.59
2023-03-16T03:41:07.323Z,101205.91
2023-03-16T03:41:31.422Z,101214.63
2023-03-16T03:41:56.048Z,101206.72
2023-03-16T03:42:18.414Z,101187.44
2023-03-16T03:42:43.855Z,101212.81
2023-03-16T03:43:06.444Z,101211.09
2023-03-16T03:43:32.344Z,101213.72
2023-03-16T03:43:54.027Z,101214.63
2023-03-16T03:44:16.693Z,101208.47
2023-03-16T03:44:38.310Z,101209.31
2023-03-16T03:44:59.924Z,101213.72
2023-03-16T03:45:21.557Z,101204.03
2023-03-16T03:45:44.320Z,101205.81
2023-03-16T03:46:06.109Z,101215.47
2023-03-16T03:46:30.903Z,101207.59
2023-03-16T03:46:52.857Z,101215.53
2023-03-16T03:47:16.151Z,101215.56
2023-03-16T03:47:38.088Z,101214.63
2023-03-16T03:48:00.408Z,101208.50
2023-03-16T03:48:23.115Z,101209.38
2023-03-16T03:48:44.735Z,101214.63
2023-03-16T03:49:06.397Z,101211.16
2023-03-16T03:49:29.979Z,101207.59
2023-03-16T03:49:51.678Z,101214.63
2023-03-16T03:50:14.790Z,101196.22
2023-03-16T03:51:06.710Z,101206.69
2023-03-16T03:51:40.985Z,101209.31
2023-03-16T03:52:08.197Z,101206.72
2023-03-16T03:52:29.899Z,101198.81
2023-03-16T03:52:51.590Z,101204.94
2023-03-16T03:53:13.243Z,101205.81
2023-03-16T03:53:56.382Z,101201.38
2023-03-16T03:54:31.144Z,101199.63
2023-03-16T03:54:55.352Z,101201.38
2023-03-16T03:55:18.590Z,101199.63
2023-03-16T03:55:40.205Z,101204.88
2023-03-16T03:56:01.782Z,101203.09
2023-03-16T03:56:23.604Z,101204.84
2023-03-16T03:56:45.228Z,101199.63
2023-03-16T03:57:11.301Z,101199.63
2023-03-16T03:57:33.370Z,101180.31
2023-03-16T03:57:55.157Z,101202.22
2023-03-16T03:58:17.013Z,101202.22
2023-03-16T03:58:39.742Z,101209.22
2023-03-16T03:59:01.603Z,101208.34
2023-03-16T03:59:45.824Z,101201.28
2023-03-16T04:00:27.364Z,101204.78
2023-03-16T04:00:49.231Z,101208.34
2023-03-16T04:01:10.919Z,101199.59
2023-03-16T04:01:33.910Z,101203.09
2023-03-16T04:01:56.680Z,101204.84
2023-03-16T04:02:24.451Z,101203.06
2023-03-16T04:02:49.414Z,101207.47
2023-03-16T04:03:21.775Z,101204.81
2023-03-16T04:03:45.755Z,101204.78
2023-03-16T04:04:09.833Z,101210.91
2023-03-16T04:04:31.505Z,101204.78
2023-03-16T04:04:53.077Z,101207.38
2023-03-16T04:05:15.878Z,101202.97
2023-03-16T04:05:38.058Z,101204.78
2023-03-16T04:06:00.029Z,101208.25
2023-03-16T04:06:22.748Z,101208.25
2023-03-16T04:06:45.699Z,101205.63
2023-03-16T04:07:07.764Z,101197.78
2023-03-16T04:07:29.456Z,101208.28
2023-03-16T04:07:57.620Z,101205.66
2023-03-16T04:08:19.574Z,101202.97
2023-03-16T04:08:43.155Z,101199.50
2023-03-16T04:09:10.953Z,101209.13
2023-03-16T04:09:34.563Z,101196.84
2023-03-16T04:09:57.115Z,101208.28
2023-03-16T04:10:25.223Z,101205.63
2023-03-16T04:10:51.386Z,101206.50
2023-03-16T04:11:15.369Z,101205.63
2023-03-16T04:11:39.361Z,101210.91
2023-03-16T04:12:01.819Z,101210.91
2023-03-16T04:12:23.838Z,101205.63
2023-03-16T04:12:46.862Z,101211.75
2023-03-16T04:13:09.317Z,101202.13
2023-03-16T04:13:31.081Z,101209.13
2023-03-16T04:13:53.410Z,101213.53
2023-03-16T04:14:15.948Z,101212.66
2023-03-16T04:14:40.003Z,101206.47
2023-03-16T04:15:04.788Z,101202.97
2023-03-16T04:15:33.975Z,101209.06
2023-03-16T04:16:05.794Z,101209.06
2023-03-16T04:16:35.978Z,101212.59
2023-03-16T04:16:57.985Z,101199.44
2023-03-16T04:17:20.564Z,101202.91
2023-03-16T04:17:43.340Z,101201.22
2023-03-16T04:18:06.352Z,101209.97
2023-03-16T04:18:29.057Z,101205.63
2023-03-16T04:18:51.750Z,101203.81
2023-03-16T04:19:13.416Z,101200.38
2023-03-16T04:19:35.757Z,101198.66
2023-03-16T04:19:58.682Z,101199.53
2023-03-16T04:20:20.723Z,101196.00
2023-03-16T04:20:44.351Z,101200.41
2023-03-16T04:21:14.701Z,101203.94
2023-03-16T04:21:36.403Z,101202.19
2023-03-16T04:21:58.076Z,101194.28
2023-03-16T04:22:23.083Z,101202.16
2023-03-16T04:22:46.425Z,101201.31
2023-03-16T04:23:09.020Z,101201.28
2023-03-16T04:23:33.898Z,101199.50
2023-03-16T04:23:56.744Z,101195.97
2023-03-16T04:24:25.950Z,101199.50
2023-03-16T04:24:47.625Z,101194.22
2023-03-16T04:25:11.407Z,101196.81
2023-03-16T04:25:38.542Z,101191.59
2023-03-16T04:26:01.587Z,101195.94
2023-03-16T04:26:25.596Z,101189.84
2023-03-16T04:26:48.607Z,101199.53
2023-03-16T04:27:12.039Z,101191.66
2023-03-16T04:27:36.497Z,101198.69
2023-03-16T04:27:59.293Z,101190.75
2023-03-16T04:28:26.298Z,101187.22
2023-03-16T04:28:49.193Z,101191.59
2023-03-16T04:29:14.578Z,101188.09
2023-03-16T04:29:36.435Z,101184.63
2023-03-16T04:29:59.626Z,101191.63
2023-03-16T04:30:23.400Z,101188.06
2023-03-16T04:30:49.573Z,101193.34
2023-03-16T04:31:20.203Z,101190.69
2023-03-16T04:31:44.634Z,101188.09
2023-03-16T04:32:08.663Z,101186.41
2023-03-16T04:32:31.639Z,101196.09
2023-03-16T04:32:53.558Z,101182.94
2023-03-16T04:33:16.592Z,101187.34
2023-03-16T04:33:42.331Z,101179.41
2023-03-16T04:34:04.001Z,101183.81
2023-03-16T04:34:26.810Z,101171.56
2023-03-16T04:34:55.749Z,101179.41
2023-03-16T04:35:22.561Z,101180.31
2023-03-16T04:35:48.805Z,101178.56
2023-03-16T04:36:12.024Z,101180.31
2023-03-16T04:36:34.220Z,101182.94
2023-03-16T04:36:58.970Z,101183.81
2023-03-16T04:37:20.677Z,101179.47
2023-03-16T04:37:42.510Z,101168.06
2023-03-16T04:38:05.278Z,101172.44
2023-03-16T04:38:36.296Z,101176.78
2023-03-16T04:38:57.926Z,101183.81